Time;durP1;ratioP1;P1;durP2;ratioP2;P2;SDS_P1;SDS_P2;PMS_P1;PMS_P2;Temp;Humidity;BMP_temperature;BMP_pressure;BME280_temperature;BME280_humidity;BME280_pressure;Samples;Min_cycle;Max_cycle;Signal;HPM_P1;HPM_P2
2023/12/30 00:01:50;;;;;;;;;;;;;;;;;;5021991;28;59726;-77
2023/12/30 00:04:15;;;;;;;;;;;;;;;;;;5020257;28;58463;-76
2023/12/30 00:06:41;;;;;;;;;;;;;;;;;;5023052;27;60587;-77
2023/12/30 00:09:06;;;;;;;;;;;;;;;;;;5017784;28;59664;-74
2023/12/30 00:11:31;;;;;;;;;;;;;;;;;;5021556;28;58706;-81
2023/12/30 00:13:56;;;;;;;;;;;;;;;;;;5021418;28;59399;-79
2023/12/30 00:16:21;;;;;;;;;;;;;;;;;;5018147;28;59810;-76
2023/12/30 00:18:46;;;;;;;;;;;;;;;;;;5023594;28;58491;-77
2023/12/30 00:21:12;;;;;;;;;;;;;;;;;;5021169;28;58403;-77
2023/12/30 00:23:39;;;;;;;;;;;;;;;;;;5020348;28;58527;-77
2023/12/30 00:26:04;;;;;;;;;;;;;;;;;;5020185;28;59430;-77
2023/12/30 00:28:29;;;;;;;;;;;;;;;;;;5018962;28;58839;-77
2023/12/30 00:30:54;;;;;;;;;;;;;;;;;;5021194;27;58700;-77
2023/12/30 00:33:19;;;;;;;;;;;;;;;;;;5021167;28;59507;-77
2023/12/30 00:35:44;;;;;;;;;;;;;;;;;;5021838;28;58444;-78
2023/12/30 00:38:09;;;;;;;;;;;;;;;;;;5022335;27;58747;-77
2023/12/30 00:40:34;;;;;;;;;;;;;;;;;;5019446;28;58693;-77
2023/12/30 00:42:59;;;;;;;;;;;;;;;;;;5018998;28;58514;-77
2023/12/30 00:45:24;;;;;;;;;;;;;;;;;;5022331;28;60393;-76
2023/12/30 00:47:50;;;;;;;;;;;;;;;;;;5021228;27;59186;-76
2023/12/30 00:50:15;;;;;;;;;;;;;;;;;;5021836;28;58796;-78
2023/12/30 00:52:40;;;;;;;;;;;;;;;;;;5019835;28;58754;-76
2023/12/30 00:55:05;;;;;;;;;;;;;;;;;;5019214;28;58642;-79
2023/12/30 00:57:30;;;;;;;;;;;;;;;;;;5021224;28;59860;-77
2023/12/30 00:59:55;;;;;;;;;;;;;;;;;;5020590;28;59962;-76
2023/12/30 01:02:20;;;;;;;;;;;;;;;;;;5018284;28;58859;-77
2023/12/30 01:04:45;;;;;;;;;;;;;;;;;;5020560;28;58513;-76
2023/12/30 01:07:10;;;;;;;;;;;;;;;;;;5019907;28;58553;-75
2023/12/30 01:09:35;;;;;;;;;;;;;;;;;;5021282;28;58974;-73
2023/12/30 01:12:01;;;;;;;;;;;;;;;;;;5019766;28;59640;-73
2023/12/30 01:14:26;;;;;;;;;;;;;;;;;;5018560;28;59221;-74
2023/12/30 01:16:51;;;;;;;;;;;;;;;;;;5021631;28;58685;-74
2023/12/30 01:19:16;;;;;;;;;;;;;;;;;;5019199;28;58843;-74
2023/12/30 01:21:41;;;;;;;;;;;;;;;;;;5020770;28;59539;-74
2023/12/30 01:24:06;;;;;;;;;;;;;;;;;;5020079;28;59489;-74
2023/12/30 01:26:31;;;;;;;;;;;;;;;;;;5019323;28;59589;-75
2023/12/30 01:28:56;;;;;;;;;;;;;;;;;;5021630;28;58875;-76
2023/12/30 01:31:21;;;;;;;;;;;;;;;;;;5018324;28;59401;-75
2023/12/30 01:33:46;;;;;;;;;;;;;;;;;;5020706;28;59238;-76
2023/12/30 01:36:12;;;;;;;;;;;;;;;;;;5022541;28;76962;-78
2023/12/30 01:38:37;;;;;;;;;;;;;;;;;;5023540;27;59436;-76
2023/12/30 01:41:02;;;;;;;;;;;;;;;;;;5010670;28;59021;-81
2023/12/30 01:43:27;;;;;;;;;;;;;;;;;;5022954;28;58866;-79
2023/12/30 01:45:53;;;;;;;;;;;;;;;;;;5022028;28;58557;-79
2023/12/30 01:48:18;;;;;;;;;;;;;;;;;;5023349;28;59198;-80
2023/12/30 01:50:43;;;;;;;;;;;;;;;;;;5019118;28;59532;-78
2023/12/30 01:53:08;;;;;;;;;;;;;;;;;;5017278;28;59271;-79
2023/12/30 01:55:33;;;;;;;;;;;;;;;;;;5021707;27;58547;-78
2023/12/30 01:57:58;;;;;;;;;;;;;;;;;;5023785;27;59191;-82
2023/12/30 02:00:23;;;;;;;;;;;;;;;;;;5021717;28;59997;-83
2023/12/30 02:02:53;;;;;;;;;;;;;;;;;;5023959;27;60019;-82
2023/12/30 02:05:18;;;;;;;;;;;;;;;;;;5021990;27;60208;-80
2023/12/30 02:07:43;;;;;;;;;;;;;;;;;;5023008;28;59046;-79
2023/12/30 02:10:08;;;;;;;;;;;;;;;;;;5021999;28;60357;-83
2023/12/30 02:12:33;;;;;;;;;;;;;;;;;;5022789;28;59468;-80
2023/12/30 02:14:58;;;;;;;;;;;;;;;;;;5022058;28;59177;-81
2023/12/30 02:17:23;;;;;;;;;;;;;;;;;;5023089;28;60319;-80
2023/12/30 02:19:49;;;;;;;;;;;;;;;;;;5022995;28;58829;-81
2023/12/30 02:22:15;;;;;;;;;;;;;;;;;;5021583;28;58441;-81
2023/12/30 02:24:40;;;;;;;;;;;;;;;;;;5022458;28;60191;-84
2023/12/30 02:27:05;;;;;;;;;;;;;;;;;;5023666;28;59696;-80
2023/12/30 02:29:30;;;;;;;;;;;;;;;;;;5023514;28;58984;-79
2023/12/30 02:31:55;;;;;;;;;;;;;;;;;;5024190;28;59714;-83
2023/12/30 02:34:21;;;;;;;;;;;;;;;;;;5023150;27;58612;-81
2023/12/30 02:36:46;;;;;;;;;;;;;;;;;;5022981;27;60144;-80
2023/12/30 02:39:11;;;;;;;;;;;;;;;;;;5022471;28;59034;-73
2023/12/30 02:41:36;;;;;;;;;;;;;;;;;;5020605;28;58933;-74
2023/12/30 02:44:01;;;;;;;;;;;;;;;;;;5021006;28;59699;-78
2023/12/30 02:46:26;;;;;;;;;;;;;;;;;;5021317;28;59754;-75
2023/12/30 02:48:52;;;;;;;;;;;;;;;;;;5023841;28;60282;-78
2023/12/30 02:51:17;;;;;;;;;;;;;;;;;;5023140;28;58377;-75
2023/12/30 02:53:42;;;;;;;;;;;;;;;;;;5022010;27;58388;-79
2023/12/30 02:56:07;;;;;;;;;;;;;;;;;;5022161;28;59237;-78
2023/12/30 02:58:32;;;;;;;;;;;;;;;;;;5021837;28;59215;-79
2023/12/30 03:00:57;;;;;;;;;;;;;;;;;;5021342;28;58380;-78
2023/12/30 03:03:22;;;;;;;;;;;;;;;;;;5021449;28;59295;-78
2023/12/30 03:05:47;;;;;;;;;;;;;;;;;;5022757;28;59246;-78
2023/12/30 03:08:12;;;;;;;;;;;;;;;;;;5021808;28;58452;-79
2023/12/30 03:10:37;;;;;;;;;;;;;;;;;;5021300;28;58698;-78
2023/12/30 03:13:03;;;;;;;;;;;;;;;;;;5020350;28;58936;-79
2023/12/30 03:15:28;;;;;;;;;;;;;;;;;;5022079;28;60641;-78
2023/12/30 03:17:53;;;;;;;;;;;;;;;;;;5022361;28;58890;-78
2023/12/30 03:20:18;;;;;;;;;;;;;;;;;;5021457;28;59338;-80
2023/12/30 03:22:44;;;;;;;;;;;;;;;;;;5022753;28;59634;-78
2023/12/30 03:25:09;;;;;;;;;;;;;;;;;;5020570;28;58984;-78
2023/12/30 03:27:34;;;;;;;;;;;;;;;;;;5022846;28;59066;-78
2023/12/30 03:29:59;;;;;;;;;;;;;;;;;;5024085;28;59421;-78
2023/12/30 03:32:24;;;;;;;;;;;;;;;;;;5020604;28;58807;-78
2023/12/30 03:34:49;;;;;;;;;;;;;;;;;;5023013;28;59680;-79
2023/12/30 03:37:14;;;;;;;;;;;;;;;;;;5019313;28;58316;-77
2023/12/30 03:39:39;;;;;;;;;;;;;;;;;;5022942;28;58951;-79
2023/12/30 03:42:04;;;;;;;;;;;;;;;;;;5021314;28;60408;-78
2023/12/30 03:44:29;;;;;;;;;;;;;;;;;;5021489;28;58564;-78
2023/12/30 03:46:54;;;;;;;;;;;;;;;;;;5021917;28;58570;-78
2023/12/30 03:49:19;;;;;;;;;;;;;;;;;;5020942;28;59835;-78
2023/12/30 03:51:44;;;;;;;;;;;;;;;;;;5021830;28;58875;-79
2023/12/30 03:54:10;;;;;;;;;;;;;;;;;;5020355;28;59370;-78
2023/12/30 03:56:35;;;;;;;;;;;;;;;;;;5020788;28;59119;-79
2023/12/30 03:59:00;;;;;;;;;;;;;;;;;;5021776;28;58860;-78
2023/12/30 04:01:25;;;;;;;;;;;;;;;;;;5021277;28;61986;-79
2023/12/30 04:03:50;;;;;;;;;;;;;;;;;;5020991;28;59175;-77
2023/12/30 04:06:16;;;;;;;;;;;;;;;;;;5020219;28;59982;-77
2023/12/30 04:08:41;;;;;;;;;;;;;;;;;;5021458;27;59351;-79
2023/12/30 04:11:06;;;;;;;;;;;;;;;;;;5017562;28;59031;-77
2023/12/30 04:13:31;;;;;;;;;;;;;;;;;;5020804;28;58390;-79
2023/12/30 04:15:56;;;;;;;;;;;;;;;;;;5021816;28;58934;-76
2023/12/30 04:18:21;;;;;;;;;;;;;;;;;;5018402;28;58844;-79
2023/12/30 04:20:46;;;;;;;;;;;;;;;;;;5020687;28;59947;-79
2023/12/30 04:23:11;;;;;;;;;;;;;;;;;;5018457;28;59320;-78
2023/12/30 04:25:36;;;;;;;;;;;;;;;;;;5021361;28;59160;-76
2023/12/30 04:28:02;;;;;;;;;;;;;;;;;;5021287;28;59306;-78
2023/12/30 04:30:27;;;;;;;;;;;;;;;;;;5020611;28;58924;-78
2023/12/30 04:32:52;;;;;;;;;;;;;;;;;;5022921;28;59613;-77
2023/12/30 04:35:17;;;;;;;;;;;;;;;;;;5018403;28;60612;-78
2023/12/30 04:37:42;;;;;;;;;;;;;;;;;;5022937;28;58727;-78
2023/12/30 04:40:07;;;;;;;;;;;;;;;;;;5017522;28;59403;-77
2023/12/30 04:42:32;;;;;;;;;;;;;;;;;;5020712;28;58793;-77
2023/12/30 04:44:57;;;;;;;;;;;;;;;;;;5022913;28;58794;-77
2023/12/30 04:47:22;;;;;;;;;;;;;;;;;;5019233;28;59349;-78
2023/12/30 04:49:47;;;;;;;;;;;;;;;;;;5020211;28;59554;-76
2023/12/30 04:52:13;;;;;;;;;;;;;;;;;;5018436;28;58570;-77
2023/12/30 04:54:42;;;;;;;;;;;;;;;;;;5022628;28;59426;-79
2023/12/30 04:57:07;;;;;;;;;;;;;;;;;;5019101;28;58515;-77
2023/12/30 04:59:32;;;;;;;;;;;;;;;;;;5021922;28;58345;-77
2023/12/30 05:01:57;;;;;;;;;;;;;;;;;;5020904;28;58978;-77
2023/12/30 05:04:22;;;;;;;;;;;;;;;;;;5020451;28;58861;-78
2023/12/30 05:06:47;;;;;;;;;;;;;;;;;;5019686;28;60309;-77
2023/12/30 05:09:14;;;;;;;;;;;;;;;;;;5018697;28;58537;-78
2023/12/30 05:11:39;;;;;;;;;;;;;;;;;;5020580;28;58333;-78
2023/12/30 05:14:04;;;;;;;;;;;;;;;;;;5017207;28;59596;-80
2023/12/30 05:16:29;;;;;;;;;;;;;;;;;;5019649;28;59315;-77
2023/12/30 05:18:54;;;;;;;;;;;;;;;;;;5019800;28;59465;-77
2023/12/30 05:21:19;;;;;;;;;;;;;;;;;;5018845;28;59956;-78
2023/12/30 05:23:44;;;;;;;;;;;;;;;;;;5020912;28;59025;-78
2023/12/30 05:26:12;;;;;;;;;;;;;;;;;;5019970;28;59438;-78
2023/12/30 05:28:37;;;;;;;;;;;;;;;;;;5017565;28;58939;-79
2023/12/30 05:31:02;;;;;;;;;;;;;;;;;;5020129;28;58374;-80
2023/12/30 05:33:27;;;;;;;;;;;;;;;;;;5019433;28;58886;-79
2023/12/30 05:35:52;;;;;;;;;;;;;;;;;;5019614;28;60044;-78
2023/12/30 05:38:17;;;;;;;;;;;;;;;;;;5017522;28;58460;-79
2023/12/30 05:40:42;;;;;;;;;;;;;;;;;;5018487;28;59045;-79
2023/12/30 05:43:07;;;;;;;;;;;;;;;;;;5018941;28;58432;-78
2023/12/30 05:45:32;;;;;;;;;;;;;;;;;;5020415;27;59532;-80
2023/12/30 05:47:58;;;;;;;;;;;;;;;;;;5020208;28;58782;-78
2023/12/30 05:50:23;;;;;;;;;;;;;;;;;;5016860;28;58898;-78
2023/12/30 05:52:48;;;;;;;;;;;;;;;;;;5017921;28;60395;-78
2023/12/30 05:55:14;;;;;;;;;;;;;;;;;;5017466;28;59417;-78
2023/12/30 05:57:39;;;;;;;;;;;;;;;;;;5015075;28;59014;-80
2023/12/30 06:00:04;;;;;;;;;;;;;;;;;;5016439;28;58436;-79
2023/12/30 06:02:29;;;;;;;;;;;;;;;;;;5019490;28;58626;-78
2023/12/30 06:04:54;;;;;;;;;;;;;;;;;;5020317;28;59413;-78
2023/12/30 06:07:19;;;;;;;;;;;;;;;;;;5015186;28;59258;-80
2023/12/30 06:09:44;;;;;;;;;;;;;;;;;;5016258;28;59917;-77
2023/12/30 06:12:09;;;;;;;;;;;;;;;;;;5018306;28;59123;-79
2023/12/30 06:14:36;;;;;;;;;;;;;;;;;;5018152;28;59390;-78
2023/12/30 06:17:01;;;;;;;;;;;;;;;;;;5016981;28;59001;-80
2023/12/30 06:19:26;;;;;;;;;;;;;;;;;;5018976;28;59810;-78
2023/12/30 06:21:51;;;;;;;;;;;;;;;;;;5021037;27;60074;-77
2023/12/30 06:24:16;;;;;;;;;;;;;;;;;;5022184;28;60261;-77
2023/12/30 06:26:42;;;;;;;;;;;;;;;;;;5022026;28;58788;-79
2023/12/30 06:29:07;;;;;;;;;;;;;;;;;;5021960;28;58587;-78
2023/12/30 06:31:32;;;;;;;;;;;;;;;;;;5023277;28;59508;-78
2023/12/30 06:33:57;;;;;;;;;;;;;;;;;;5021781;28;58931;-76
2023/12/30 06:36:23;;;;;;;;;;;;;;;;;;5023470;28;59226;-78
2023/12/30 06:38:48;;;;;;;;;;;;;;;;;;5021421;28;59052;-78
2023/12/30 06:41:13;;;;;;;;;;;;;;;;;;5021097;28;58633;-78
2023/12/30 06:43:38;;;;;;;;;;;;;;;;;;5019841;28;58650;-78
2023/12/30 06:46:03;;;;;;;;;;;;;;;;;;5020549;27;58808;-79
2023/12/30 06:48:29;;;;;;;;;;;;;;;;;;5023298;28;58358;-77
2023/12/30 06:50:56;;;;;;;;;;;;;;;;;;5024322;28;59272;-78
2023/12/30 06:53:21;;;;;;;;;;;;;;;;;;5021226;28;59907;-77
2023/12/30 06:55:46;;;;;;;;;;;;;;;;;;5024810;28;58606;-78
2023/12/30 06:58:11;;;;;;;;;;;;;;;;;;5018821;28;59551;-79
2023/12/30 07:00:36;;;;;;;;;;;;;;;;;;5022873;28;58786;-77
2023/12/30 07:03:01;;;;;;;;;;;;;;;;;;5024273;28;58456;-78
2023/12/30 07:05:26;;;;;;;;;;;;;;;;;;5022723;28;59020;-78
2023/12/30 07:07:51;;;;;;;;;;;;;;;;;;5022020;28;59470;-80
2023/12/30 07:10:17;;;;;;;;;;;;;;;;;;5019545;28;60640;-78
2023/12/30 07:12:42;;;;;;;;;;;;;;;;;;5019878;27;58958;-79
2023/12/30 07:15:07;;;;;;;;;;;;;;;;;;5020118;28;58721;-78
2023/12/30 07:17:32;;;;;;;;;;;;;;;;;;5019841;28;59471;-77
2023/12/30 07:19:58;;;;;;;;;;;;;;;;;;5020505;28;59158;-78
2023/12/30 07:22:24;;;;;;;;;;;;;;;;;;5020599;28;58493;-77
2023/12/30 07:24:49;;;;;;;;;;;;;;;;;;5020613;28;59620;-79
2023/12/30 07:27:14;;;;;;;;;;;;;;;;;;5023655;28;59702;-78
2023/12/30 07:29:39;;;;;;;;;;;;;;;;;;5021891;28;59493;-79
2023/12/30 07:32:04;;;;;;;;;;;;;;;;;;5021423;27;60645;-77
2023/12/30 07:34:30;;;;;;;;;;;;;;;;;;5019730;28;59740;-78
2023/12/30 07:36:56;;;;;;;;;;;;;;;;;;5022271;28;59454;-77
2023/12/30 07:39:21;;;;;;;;;;;;;;;;;;5025155;28;58955;-78
2023/12/30 07:41:46;;;;;;;;;;;;;;;;;;5020996;28;58982;-78
2023/12/30 07:44:11;;;;;;;;;;;;;;;;;;5025217;28;58969;-77
2023/12/30 07:46:36;;;;;;;;;;;;;;;;;;5024347;28;59868;-77
2023/12/30 07:49:02;;;;;;;;;;;;;;;;;;5020995;28;59618;-79
2023/12/30 07:51:27;;;;;;;;;;;;;;;;;;5024133;28;59252;-78
2023/12/30 07:53:52;;;;;;;;;;;;;;;;;;5024433;28;58527;-77
2023/12/30 07:56:17;;;;;;;;;;;;;;;;;;5026051;28;59478;-78
2023/12/30 07:58:43;;;;;;;;;;;;;;;;;;5024123;28;58799;-77
2023/12/30 08:01:08;;;;;;;;;;;;;;;;;;5025180;28;58287;-78
2023/12/30 08:03:33;;;;;;;;;;;;;;;;;;5021018;28;59289;-79
2023/12/30 08:05:58;;;;;;;;;;;;;;;;;;5023631;28;60106;-77
2023/12/30 08:08:23;;;;;;;;;;;;;;;;;;5026351;28;58705;-78
2023/12/30 08:10:48;;;;;;;;;;;;;;;;;;5023391;28;58771;-80
2023/12/30 08:13:15;;;;;;;;;;;;;;;;;;5024329;28;58378;-77
2023/12/30 08:15:40;;;;;;;;;;;;;;;;;;5024861;28;59407;-77
2023/12/30 08:18:05;;;;;;;;;;;;;;;;;;5021130;28;58663;-76
2023/12/30 08:20:30;;;;;;;;;;;;;;;;;;5022421;28;58656;-79
2023/12/30 08:22:56;;;;;;;;;;;;;;;;;;5020117;28;58931;-77
2023/12/30 08:25:21;;;;;;;;;;;;;;;;;;5019008;28;59987;-78
2023/12/30 08:27:46;;;;;;;;;;;;;;;;;;5023242;27;58575;-78
2023/12/30 08:30:11;;;;;;;;;;;;;;;;;;5022806;28;61335;-79
2023/12/30 08:32:36;;;;;;;;;;;;;;;;;;5018943;28;60133;-77
2023/12/30 08:35:03;;;;;;;;;;;;;;;;;;5021145;28;59533;-78
2023/12/30 08:37:28;;;;;;;;;;;;;;;;;;5021118;28;59194;-78
2023/12/30 08:39:53;;;;;;;;;;;;;;;;;;5024346;28;58428;-78
2023/12/30 08:42:18;;;;;;;;;;;;;;;;;;5024388;28;60424;-77
2023/12/30 08:44:43;;;;;;;;;;;;;;;;;;5022740;28;59284;-78
2023/12/30 08:47:09;;;;;;;;;;;;;;;;;;5023736;27;58985;-77
2023/12/30 08:49:34;;;;;;;;;;;;;;;;;;5023912;27;59303;-77
2023/12/30 08:51:59;;;;;;;;;;;;;;;;;;5026412;28;58379;-78
2023/12/30 08:54:24;;;;;;;;;;;;;;;;;;5025740;28;59786;-78
2023/12/30 08:56:53;;;;;;;;;;;;;;;;;;5023568;28;58623;-78
2023/12/30 08:59:19;;;;;;;;;;;;;;;;;;5022392;28;58515;-78
2023/12/30 09:01:44;;;;;;;;;;;;;;;;;;5022131;28;59300;-77
2023/12/30 09:04:09;;;;;;;;;;;;;;;;;;5022383;28;59519;-77
2023/12/30 09:06:34;;;;;;;;;;;;;;;;;;5021349;28;58561;-75
2023/12/30 09:08:59;;;;;;;;;;;;;;;;;;5023780;28;59328;-77
2023/12/30 09:11:24;;;;;;;;;;;;;;;;;;5024036;28;58979;-77
2023/12/30 09:13:49;;;;;;;;;;;;;;;;;;5022697;28;59409;-76
2023/12/30 09:16:14;;;;;;;;;;;;;;;;;;5023134;28;58618;-79
2023/12/30 09:18:39;;;;;;;;;;;;;;;;;;5023413;28;58824;-77
2023/12/30 09:21:04;;;;;;;;;;;;;;;;;;5024682;28;59262;-77
2023/12/30 09:23:29;;;;;;;;;;;;;;;;;;5023408;28;58419;-77
2023/12/30 09:25:55;;;;;;;;;;;;;;;;;;5024176;28;58589;-76
2023/12/30 09:28:20;;;;;;;;;;;;;;;;;;5023913;28;59456;-77
2023/12/30 09:30:45;;;;;;;;;;;;;;;;;;5019495;28;58790;-76
2023/12/30 09:33:10;;;;;;;;;;;;;;;;;;5024568;28;58405;-76
2023/12/30 09:35:35;;;;;;;;;;;;;;;;;;5024144;28;58642;-76
2023/12/30 09:38:00;;;;;;;;;;;;;;;;;;5023297;28;58773;-76
2023/12/30 09:40:27;;;;;;;;;;;;;;;;;;5021781;28;59429;-77
2023/12/30 09:42:52;;;;;;;;;;;;;;;;;;5022974;28;59854;-77
2023/12/30 09:45:17;;;;;;;;;;;;;;;;;;5024026;28;58579;-77
2023/12/30 09:47:42;;;;;;;;;;;;;;;;;;5023558;28;58507;-77
2023/12/30 09:50:07;;;;;;;;;;;;;;;;;;5022095;27;58966;-77
2023/12/30 09:52:32;;;;;;;;;;;;;;;;;;5023329;28;58406;-79
2023/12/30 09:54:57;;;;;;;;;;;;;;;;;;5022270;28;60188;-77
2023/12/30 09:57:22;;;;;;;;;;;;;;;;;;5026686;28;58707;-77
2023/12/30 09:59:47;;;;;;;;;;;;;;;;;;5026102;27;60972;-78
2023/12/30 10:02:12;;;;;;;;;;;;;;;;;;5024437;28;58881;-70
2023/12/30 10:04:38;;;;;;;;;;;;;;;;;;5027963;28;58408;-70
2023/12/30 10:07:03;;;;;;;;;;;;;;;;;;5027380;27;59541;-74
2023/12/30 10:09:28;;;;;;;;;;;;;;;;;;5024036;28;59671;-72
2023/12/30 10:11:53;;;;;;;;;;;;;;;;;;5027950;28;58730;-72
2023/12/30 10:14:18;;;;;;;;;;;;;;;;;;5027251;28;60066;-71
2023/12/30 10:16:43;;;;;;;;;;;;;;;;;;5027639;28;59196;-70
2023/12/30 10:19:08;;;;;;;;;;;;;;;;;;5026311;28;59313;-69
2023/12/30 10:21:33;;;;;;;;;;;;;;;;;;5026229;28;59236;-75
2023/12/30 10:23:58;;;;;;;;;;;;;;;;;;5024243;28;59213;-75
2023/12/30 10:26:23;;;;;;;;;;;;;;;;;;5024833;27;61386;-74
2023/12/30 10:28:48;;;;;;;;;;;;;;;;;;5026858;28;59300;-73
2023/12/30 10:31:13;;;;;;;;;;;;;;;;;;5025400;28;59075;-77
2023/12/30 10:33:39;;;;;;;;;;;;;;;;;;5026477;28;59329;-74
2023/12/30 10:36:04;;;;;;;;;;;;;;;;;;5026194;28;58952;-77
2023/12/30 10:38:29;;;;;;;;;;;;;;;;;;5026100;28;58472;-74
2023/12/30 10:40:54;;;;;;;;;;;;;;;;;;5023801;28;58938;-75
2023/12/30 10:43:19;;;;;;;;;;;;;;;;;;5021838;28;58723;-79
2023/12/30 10:45:44;;;;;;;;;;;;;;;;;;5023350;28;60166;-78
2023/12/30 10:48:09;;;;;;;;;;;;;;;;;;5024734;28;59197;-77
2023/12/30 10:50:34;;;;;;;;;;;;;;;;;;5025823;28;58513;-76
2023/12/30 10:53:01;;;;;;;;;;;;;;;;;;5022649;28;60607;-76
2023/12/30 10:55:26;;;;;;;;;;;;;;;;;;5022429;28;59922;-75
2023/12/30 10:57:51;;;;;;;;;;;;;;;;;;5025592;28;58705;-76
2023/12/30 11:00:16;;;;;;;;;;;;;;;;;;5023733;28;59041;-75
2023/12/30 11:02:41;;;;;;;;;;;;;;;;;;5025324;28;58527;-76
2023/12/30 11:05:06;;;;;;;;;;;;;;;;;;5025525;28;59824;-76
2023/12/30 11:07:31;;;;;;;;;;;;;;;;;;5024341;27;60015;-76
2023/12/30 11:09:56;;;;;;;;;;;;;;;;;;5025072;28;58865;-76
2023/12/30 11:12:22;;;;;;;;;;;;;;;;;;5025469;28;58251;-76
2023/12/30 11:14:47;;;;;;;;;;;;;;;;;;5023876;28;58934;-75
2023/12/30 11:17:13;;;;;;;;;;;;;;;;;;5026387;28;58745;-76
2023/12/30 11:19:39;;;;;;;;;;;;;;;;;;5025241;28;60746;-76
2023/12/30 11:22:04;;;;;;;;;;;;;;;;;;5022464;28;59396;-76
2023/12/30 11:24:29;;;;;;;;;;;;;;;;;;5022595;28;59856;-74
2023/12/30 11:26:54;;;;;;;;;;;;;;;;;;5023797;28;58737;-74
2023/12/30 11:29:20;;;;;;;;;;;;;;;;;;5026539;28;58298;-74
2023/12/30 11:31:45;;;;;;;;;;;;;;;;;;5025332;27;59420;-74
2023/12/30 11:34:10;;;;;;;;;;;;;;;;;;5019521;28;60141;-72
2023/12/30 11:36:35;;;;;;;;;;;;;;;;;;5022807;28;59045;-72
2023/12/30 11:39:00;;;;;;;;;;;;;;;;;;5022230;28;60167;-73
2023/12/30 11:41:25;;;;;;;;;;;;;;;;;;5023436;28;60267;-72
2023/12/30 11:43:50;;;;;;;;;;;;;;;;;;5024913;28;59570;-72
2023/12/30 11:46:15;;;;;;;;;;;;;;;;;;5020979;28;60096;-73
2023/12/30 11:48:40;;;;;;;;;;;;;;;;;;5023197;28;58741;-73
2023/12/30 11:51:07;;;;;;;;;;;;;;;;;;5024846;28;59405;-77
2023/12/30 11:53:32;;;;;;;;;;;;;;;;;;5022537;28;58503;-77
2023/12/30 11:55:57;;;;;;;;;;;;;;;;;;5022864;27;59374;-73
2023/12/30 11:58:22;;;;;;;;;;;;;;;;;;5024210;27;59429;-78
2023/12/30 12:00:47;;;;;;;;;;;;;;;;;;5023483;28;59872;-78
2023/12/30 12:03:12;;;;;;;;;;;;;;;;;;5025107;28;58475;-76
2023/12/30 12:05:37;;;;;;;;;;;;;;;;;;5023476;28;59040;-76
2023/12/30 12:08:02;;;;;;;;;;;;;;;;;;5023479;28;59007;-78
2023/12/30 12:10:27;;;;;;;;;;;;;;;;;;5023318;27;59627;-78
2023/12/30 12:12:52;;;;;;;;;;;;;;;;;;5021731;28;58701;-73
2023/12/30 12:15:17;;;;;;;;;;;;;;;;;;5023614;28;58468;-79
2023/12/30 12:17:43;;;;;;;;;;;;;;;;;;5023306;28;58739;-78
2023/12/30 12:20:10;;;;;;;;;;;;;;;;;;5021079;28;59283;-78
2023/12/30 12:22:35;;;;;;;;;;;;;;;;;;5020780;28;58612;-72
2023/12/30 12:25:02;;;;;;;;;;;;;;;;;;5020468;28;60362;-71
2023/12/30 12:27:27;;;;;;;;;;;;;;;;;;5024054;28;58487;-70
2023/12/30 12:29:52;;;;;;;;;;;;;;;;;;5023009;27;58576;-71
2023/12/30 12:32:20;;;;;;;;;;;;;;;;;;5022744;28;59326;-72
2023/12/30 12:34:45;;;;;;;;;;;;;;;;;;5024370;27;58131;-71
2023/12/30 12:37:12;;;;;;;;;;;;;;;;;;5023201;28;61150;-73
2023/12/30 12:39:37;;;;;;;;;;;;;;;;;;5024805;28;59169;-75
2023/12/30 12:42:02;;;;;;;;;;;;;;;;;;5024550;28;59180;-79
2023/12/30 12:44:27;;;;;;;;;;;;;;;;;;5028466;28;59427;-81
2023/12/30 12:46:52;;;;;;;;;;;;;;;;;;5027673;28;59476;-83
2023/12/30 12:49:20;;;;;;;;;;;;;;;;;;5025871;28;58603;-82
2023/12/30 12:51:46;;;;;;;;;;;;;;;;;;5023222;28;58818;-82
2023/12/30 12:54:11;;;;;;;;;;;;;;;;;;5027554;28;58422;-83
2023/12/30 12:56:36;;;;;;;;;;;;;;;;;;5024156;28;59268;-81
2023/12/30 12:59:01;;;;;;;;;;;;;;;;;;5023338;28;59890;-82
2023/12/30 13:01:27;;;;;;;;;;;;;;;;;;5022640;28;58404;-82
2023/12/30 13:03:52;;;;;;;;;;;;;;;;;;5024183;28;59861;-81
2023/12/30 13:06:17;;;;;;;;;;;;;;;;;;5023936;28;59194;-76
2023/12/30 13:08:42;;;;;;;;;;;;;;;;;;5023112;28;59580;-81
2023/12/30 13:11:07;;;;;;;;;;;;;;;;;;5023842;28;58883;-81
2023/12/30 13:13:32;;;;;;;;;;;;;;;;;;5022507;28;58596;-79
2023/12/30 13:16:00;;;;;;;;;;;;;;;;;;5024156;28;59424;-79
2023/12/30 13:18:25;;;;;;;;;;;;;;;;;;5024327;28;58924;-76
2023/12/30 13:20:50;;;;;;;;;;;;;;;;;;5022860;28;58827;-81
2023/12/30 13:23:16;;;;;;;;;;;;;;;;;;5023880;28;59250;-78
2023/12/30 13:25:41;;;;;;;;;;;;;;;;;;5022027;28;59721;-75
2023/12/30 13:28:06;;;;;;;;;;;;;;;;;;5022350;28;59087;-75
2023/12/30 13:30:32;;;;;;;;;;;;;;;;;;5023877;28;59366;-78
2023/12/30 13:32:57;;;;;;;;;;;;;;;;;;5025506;28;58407;-75
2023/12/30 13:35:25;;;;;;;;;;;;;;;;;;5027036;27;59325;-76
2023/12/30 13:37:54;;;;;;;;;;;;;;;;;;5027154;28;58909;-77
2023/12/30 13:40:19;;;;;;;;;;;;;;;;;;5025486;28;58841;-78
2023/12/30 13:42:45;;;;;;;;;;;;;;;;;;5027942;28;58865;-77
2023/12/30 13:45:10;;;;;;;;;;;;;;;;;;5026204;28;59566;-76
2023/12/30 13:50:18;;;;;;;;;;;;;;;;;;5026836;27;58637;-75
2023/12/30 13:52:43;;;;;;;;;;;;;;;;;;5026338;28;58681;-76
2023/12/30 13:55:13;;;;;;;;;;;;;;;;;;5026135;27;59736;-75
2023/12/30 13:57:39;;;;;;;;;;;;;;;;;;5025475;28;59994;-76
2023/12/30 14:00:06;;;;;;;;;;;;;;;;;;5025932;28;58940;-77
2023/12/30 14:02:38;;;;;;;;;;;;;;;;;;5027089;28;59317;-75
2023/12/30 14:05:05;;;;;;;;;;;;;;;;;;5025385;28;59067;-79
2023/12/30 14:07:30;;;;;;;;;;;;;;;;;;5027058;28;58892;-75
2023/12/30 14:09:59;;;;;;;;;;;;;;;;;;5024018;28;60597;-77
2023/12/30 14:12:25;;;;;;;;;;;;;;;;;;5024527;28;59913;-76
2023/12/30 14:14:58;;;;;;;;;;;;;;;;;;5027257;28;59252;-75
2023/12/30 14:17:26;;;;;;;;;;;;;;;;;;5025070;28;59029;-77
2023/12/30 14:19:51;;;;;;;;;;;;;;;;;;5027501;28;58850;-78
2023/12/30 14:22:18;;;;;;;;;;;;;;;;;;5025667;28;59362;-76
2023/12/30 14:24:44;;;;;;;;;;;;;;;;;;5026286;28;59305;-76
2023/12/30 14:27:10;;;;;;;;;;;;;;;;;;5024881;28;58665;-77
2023/12/30 14:29:36;;;;;;;;;;;;;;;;;;5024110;28;59477;-76
2023/12/30 14:32:01;;;;;;;;;;;;;;;;;;5021762;28;59498;-78
2023/12/30 14:34:26;;;;;;;;;;;;;;;;;;5027332;28;58838;-77
2023/12/30 14:36:51;;;;;;;;;;;;;;;;;;5024104;27;59122;-77
2023/12/30 14:39:16;;;;;;;;;;;;;;;;;;5026101;28;58452;-77
2023/12/30 14:41:41;;;;;;;;;;;;;;;;;;5025026;27;59043;-77
2023/12/30 14:44:06;;;;;;;;;;;;;;;;;;5022901;28;58944;-77
2023/12/30 14:46:31;;;;;;;;;;;;;;;;;;5023246;28;58820;-77
2023/12/30 14:48:58;;;;;;;;;;;;;;;;;;5026198;28;59264;-77
2023/12/30 14:51:23;;;;;;;;;;;;;;;;;;5023611;28;60378;-77
2023/12/30 14:53:48;;;;;;;;;;;;;;;;;;5026105;28;60452;-77
2023/12/30 14:56:14;;;;;;;;;;;;;;;;;;5026301;28;60058;-77
2023/12/30 14:58:39;;;;;;;;;;;;;;;;;;5025483;28;58479;-77
2023/12/30 15:01:05;;;;;;;;;;;;;;;;;;5025332;28;59721;-76
2023/12/30 15:03:30;;;;;;;;;;;;;;;;;;5025229;28;60002;-77
2023/12/30 15:05:55;;;;;;;;;;;;;;;;;;5023447;28;58434;-77
2023/12/30 15:08:20;;;;;;;;;;;;;;;;;;5025733;27;60335;-77
2023/12/30 15:10:45;;;;;;;;;;;;;;;;;;5024520;28;58944;-78
2023/12/30 15:13:11;;;;;;;;;;;;;;;;;;5025255;28;58481;-77
2023/12/30 15:15:36;;;;;;;;;;;;;;;;;;5026334;28;59556;-77
2023/12/30 15:18:02;;;;;;;;;;;;;;;;;;5023988;28;58388;-77
2023/12/30 15:20:27;;;;;;;;;;;;;;;;;;5024830;28;59799;-77
2023/12/30 15:22:53;;;;;;;;;;;;;;;;;;5023757;28;58682;-77
2023/12/30 15:25:18;;;;;;;;;;;;;;;;;;5024969;28;58708;-77
2023/12/30 15:27:45;;;;;;;;;;;;;;;;;;5025245;28;60294;-77
2023/12/30 15:30:10;;;;;;;;;;;;;;;;;;5024373;28;59151;-77
2023/12/30 15:32:35;;;;;;;;;;;;;;;;;;5021379;28;58213;-78
2023/12/30 15:35:00;;;;;;;;;;;;;;;;;;5025620;28;59404;-77
2023/12/30 15:37:25;;;;;;;;;;;;;;;;;;5023724;28;59072;-77
2023/12/30 15:39:50;;;;;;;;;;;;;;;;;;5024533;28;58730;-78
2023/12/30 15:42:16;;;;;;;;;;;;;;;;;;5023496;28;59207;-76
2023/12/30 15:44:41;;;;;;;;;;;;;;;;;;5025890;28;58814;-77
2023/12/30 15:47:09;;;;;;;;;;;;;;;;;;5022903;28;58734;-78
2023/12/30 15:49:34;;;;;;;;;;;;;;;;;;5023222;28;59080;-76
2023/12/30 15:51:59;;;;;;;;;;;;;;;;;;5023521;28;58618;-78
2023/12/30 15:54:24;;;;;;;;;;;;;;;;;;5024034;28;58882;-74
2023/12/30 15:56:51;;;;;;;;;;;;;;;;;;5023741;28;58941;-73
2023/12/30 15:59:17;;;;;;;;;;;;;;;;;;5024956;28;58524;-74
2023/12/30 16:01:42;;;;;;;;;;;;;;;;;;5022675;28;58536;-73
2023/12/30 16:04:08;;;;;;;;;;;;;;;;;;5023107;28;58467;-73
2023/12/30 16:06:34;;;;;;;;;;;;;;;;;;5024569;28;60440;-73
2023/12/30 16:08:59;;;;;;;;;;;;;;;;;;5025574;28;58825;-74
2023/12/30 16:11:24;;;;;;;;;;;;;;;;;;5023232;28;58424;-73
2023/12/30 16:13:49;;;;;;;;;;;;;;;;;;5023808;28;59394;-73
2023/12/30 16:16:14;;;;;;;;;;;;;;;;;;5022797;28;59637;-78
2023/12/30 16:18:39;;;;;;;;;;;;;;;;;;5022898;28;59095;-74
2023/12/30 16:21:05;;;;;;;;;;;;;;;;;;5025852;28;59598;-75
2023/12/30 16:23:30;;;;;;;;;;;;;;;;;;5023956;28;58414;-73
2023/12/30 16:25:55;;;;;;;;;;;;;;;;;;5020470;27;59356;-74
2023/12/30 16:28:21;;;;;;;;;;;;;;;;;;5020819;28;60177;-73
2023/12/30 16:30:46;;;;;;;;;;;;;;;;;;5021079;28;58639;-74
2023/12/30 16:33:11;;;;;;;;;;;;;;;;;;5023629;28;60401;-72
2023/12/30 16:35:36;;;;;;;;;;;;;;;;;;5023818;28;58910;-72